Time;durP1;ratioP1;P1;durP2;ratioP2;P2;SDS_P1;SDS_P2;PMS_P1;PMS_P2;Temp;Humidity;BMP_temperature;BMP_pressure;BME280_temperature;BME280_humidity;BME280_pressure;Samples;Min_cycle;Max_cycle;Signal;HPM_P1;HPM_P2
2020/12/28 00:01:29;;;;;;;5.70;3.10;;;-0.30;99.90;;;;;;8357601;28;20490;-71
2020/12/28 00:05:30;;;;;;;7.03;3.65;;;-0.50;99.90;;;;;;8353486;28;20039;-70
2020/12/28 00:09:31;;;;;;;7.57;3.58;;;-0.40;99.90;;;;;;8357550;28;20114;-70
2020/12/28 00:13:31;;;;;;;8.23;3.42;;;-0.10;99.90;;;;;;8357065;28;20040;-71
2020/12/28 00:17:32;;;;;;;8.60;4.60;;;-0.30;99.90;;;;;;8357637;28;20036;-71
2020/12/28 00:21:33;;;;;;;22.00;10.13;;;-0.30;99.90;;;;;;8357574;28;20107;-71
2020/12/28 00:25:33;;;;;;;9.88;5.30;;;-0.20;99.90;;;;;;8357739;28;20056;-71
2020/12/28 00:29:34;;;;;;;7.82;3.97;;;-0.20;99.90;;;;;;8354529;28;20402;-71
2020/12/28 00:33:35;;;;;;;6.45;3.22;;;-0.30;99.90;;;;;;8356983;28;20029;-70
2020/12/28 00:37:36;;;;;;;7.70;4.07;;;-0.30;99.90;;;;;;8357234;28;20111;-70
2020/12/28 00:41:37;;;;;;;7.38;3.22;;;-0.10;99.90;;;;;;8358105;28;20025;-71
2020/12/28 00:45:37;;;;;;;6.25;3.50;;;-0.50;99.90;;;;;;8357791;28;20407;-71
2020/12/28 00:49:38;;;;;;;7.63;3.70;;;-0.60;99.90;;;;;;8356560;28;20029;-71
2020/12/28 00:53:39;;;;;;;6.80;3.90;;;-0.90;99.90;;;;;;8359153;28;20534;-71
2020/12/28 00:57:39;;;;;;;15.32;7.22;;;-0.90;99.90;;;;;;8356727;28;20033;-71
2020/12/28 01:01:40;;;;;;;8.75;3.95;;;-0.80;99.90;;;;;;8355615;28;20553;-71
2020/12/28 01:05:41;;;;;;;6.50;3.63;;;-0.80;99.90;;;;;;8357583;28;20025;-72
2020/12/28 01:09:42;;;;;;;3.72;2.03;;;-0.80;99.90;;;;;;8358269;28;20060;-71
2020/12/28 01:13:42;;;;;;;6.95;3.50;;;-0.80;99.90;;;;;;8357491;28;20029;-70
2020/12/28 01:17:43;;;;;;;5.15;3.08;;;-0.70;99.90;;;;;;8363361;28;20021;-70
2020/12/28 01:21:43;;;;;;;6.97;3.47;;;-0.60;99.90;;;;;;8363198;28;20438;-71
2020/12/28 01:25:44;;;;;;;7.07;3.17;;;-0.70;99.90;;;;;;8363262;28;20029;-71
2020/12/28 01:29:45;;;;;;;6.20;3.15;;;-0.90;99.90;;;;;;8361249;28;20086;-70
2020/12/28 01:33:45;;;;;;;6.25;2.90;;;-0.90;99.90;;;;;;8363290;28;20025;-71
2020/12/28 01:37:46;;;;;;;5.63;3.10;;;-1.10;99.90;;;;;;8362971;28;20647;-71
2020/12/28 01:41:46;;;;;;;6.85;3.42;;;-1.20;99.90;;;;;;8362887;28;20025;-71
2020/12/28 01:45:47;;;;;;;6.93;3.70;;;-1.20;99.90;;;;;;8361935;28;20039;-71
2020/12/28 01:49:47;;;;;;;6.50;3.75;;;-1.30;99.90;;;;;;8362716;28;20083;-70
2020/12/28 01:53:48;;;;;;;6.85;3.60;;;-1.30;99.90;;;;;;8362407;28;20060;-70
2020/12/28 01:57:49;;;;;;;6.38;3.47;;;-1.20;99.90;;;;;;8360902;28;20110;-70
2020/12/28 02:01:51;;;;;;;7.18;3.38;;;-1.00;99.90;;;;;;8362480;28;20025;-70
2020/12/28 02:05:52;;;;;;;7.13;3.10;;;-0.80;99.90;;;;;;8362091;28;20029;-70
2020/12/28 02:09:54;;;;;;;6.60;3.33;;;-0.70;99.90;;;;;;8360750;28;20426;-71
2020/12/28 02:13:55;;;;;;;5.10;2.67;;;-0.60;99.90;;;;;;8360604;28;20189;-70
2020/12/28 02:17:55;;;;;;;5.38;2.40;;;-0.50;99.90;;;;;;8360486;28;20021;-70
2020/12/28 02:21:56;;;;;;;6.65;3.15;;;-0.20;99.90;;;;;;8361335;28;20111;-70
2020/12/28 02:25:57;;;;;;;5.70;2.90;;;-0.10;99.90;;;;;;8360563;28;20040;-71
2020/12/28 02:29:57;;;;;;;4.85;2.88;;;-0.20;99.90;;;;;;8361118;28;20093;-71
2020/12/28 02:33:58;;;;;;;4.50;2.85;;;-0.40;99.90;;;;;;8361391;28;20104;-70
2020/12/28 02:37:58;;;;;;;5.53;2.75;;;-0.50;99.90;;;;;;8359678;28;20075;-70
2020/12/28 02:41:59;;;;;;;5.57;3.38;;;-0.10;99.90;;;;;;8361056;28;20495;-70
2020/12/28 02:46:00;;;;;;;5.82;2.92;;;-0.50;99.90;;;;;;8361089;28;20029;-71
2020/12/28 02:50:00;;;;;;;4.85;2.97;;;-0.50;99.90;;;;;;8360756;28;20166;-70
2020/12/28 02:54:01;;;;;;;4.95;2.85;;;-0.30;99.90;;;;;;8359162;28;20033;-70
2020/12/28 02:58:01;;;;;;;4.82;2.75;;;-0.40;99.90;;;;;;8360821;28;20079;-71
2020/12/28 03:06:59;;;;;;;7.25;4.13;;;-0.40;99.90;;;;;;8350724;28;20090;-70
2020/12/28 03:10:59;;;;;;;5.18;2.97;;;-0.30;99.90;;;;;;8358679;28;20364;-71
2020/12/28 03:15:00;;;;;;;3.92;2.55;;;0.00;99.90;;;;;;8375180;28;20113;-71
2020/12/28 03:19:00;;;;;;;5.75;2.53;;;-0.30;99.90;;;;;;8359563;28;20033;-70
2020/12/28 03:23:01;;;;;;;4.88;2.92;;;-0.30;99.90;;;;;;8375104;28;20487;-70
2020/12/28 03:27:04;;;;;;;5.10;3.17;;;-0.30;99.90;;;;;;8359560;28;20033;-70
2020/12/28 03:31:05;;;;;;;5.22;2.92;;;-0.30;99.90;;;;;;8359207;28;20399;-70
2020/12/28 03:35:05;;;;;;;4.03;3.05;;;-0.40;99.90;;;;;;8359433;28;20029;-70
2020/12/28 03:39:06;;;;;;;4.15;2.90;;;-0.40;99.90;;;;;;8359068;28;20040;-70
2020/12/28 03:43:06;;;;;;;4.57;2.95;;;-0.50;99.90;;;;;;8359262;28;20040;-70
2020/12/28 03:47:07;;;;;;;5.13;2.80;;;-0.30;99.90;;;;;;8357988;28;20150;-70
2020/12/28 03:51:07;;;;;;;4.15;3.05;;;-0.40;99.90;;;;;;8359111;28;20086;-70
2020/12/28 03:55:08;;;;;;;2.33;0.82;;;-0.40;99.90;;;;;;8358792;28;20064;-70
2020/12/28 03:59:08;;;;;;;5.63;3.10;;;-0.20;99.90;;;;;;8358759;28;20024;-70
2020/12/28 04:03:09;;;;;;;4.93;2.90;;;-0.50;99.90;;;;;;8357537;28;20036;-70
2020/12/28 04:07:10;;;;;;;8.05;3.40;;;-0.50;99.90;;;;;;8358553;28;20465;-71
2020/12/28 04:11:10;;;;;;;5.28;3.08;;;-0.40;99.90;;;;;;8357596;28;20033;-70
2020/12/28 04:15:11;;;;;;;4.50;2.80;;;-0.40;99.90;;;;;;8348552;28;20729;-70
2020/12/28 04:19:11;;;;;;;5.00;3.42;;;-0.30;99.90;;;;;;8358485;28;20645;-70
2020/12/28 04:23:12;;;;;;;4.57;2.58;;;-0.20;99.90;;;;;;8357487;28;20098;-70
2020/12/28 04:27:12;;;;;;;4.43;2.80;;;-0.20;99.90;;;;;;8358465;28;20044;-70
2020/12/28 04:31:13;;;;;;;5.43;3.13;;;-0.40;99.90;;;;;;8358174;28;20029;-71
2020/12/28 04:35:13;;;;;;;5.57;3.72;;;-0.40;99.90;;;;;;8356947;28;20086;-70
2020/12/28 04:39:14;;;;;;;4.95;2.58;;;-0.20;99.90;;;;;;8357856;28;20471;-70
2020/12/28 04:43:14;;;;;;;3.85;2.42;;;-0.20;99.90;;;;;;8358404;28;20033;-71
2020/12/28 04:47:15;;;;;;;7.80;3.90;;;-0.20;99.90;;;;;;8357821;28;20033;-70
2020/12/28 04:51:17;;;;;;;6.10;2.85;;;-0.20;99.90;;;;;;8360372;28;20400;-71
2020/12/28 04:55:18;;;;;;;9.90;3.85;;;-0.20;99.90;;;;;;8362534;28;20056;-71
2020/12/28 04:59:18;;;;;;;5.10;3.13;;;-0.10;99.90;;;;;;8364171;28;20115;-70
2020/12/28 05:03:23;;;;;;;7.05;3.78;;;0.00;99.90;;;;;;8362947;28;20112;-71
2020/12/28 05:07:23;;;;;;;6.07;3.30;;;0.00;99.90;;;;;;8362347;28;20025;-70
2020/12/28 05:11:24;;;;;;;5.65;3.80;;;-0.20;99.90;;;;;;8363572;28;20040;-71
2020/12/28 05:15:25;;;;;;;5.50;3.47;;;0.00;99.90;;;;;;8363855;28;20025;-71
2020/12/28 05:19:26;;;;;;;9.50;4.22;;;0.00;99.90;;;;;;8363511;28;20534;-70
2020/12/28 05:23:27;;;;;;;7.18;3.42;;;0.40;99.90;;;;;;8363545;28;20029;-70
2020/12/28 05:27:27;;;;;;;7.82;3.33;;;0.40;99.90;;;;;;8362045;28;20059;-70
2020/12/28 05:31:32;;;;;;;6.40;3.58;;;0.40;99.90;;;;;;8362904;28;20033;-70
2020/12/28 05:35:32;;;;;;;4.22;2.85;;;0.60;99.90;;;;;;8363219;28;20055;-71
2020/12/28 05:39:36;;;;;;;4.97;2.53;;;0.40;99.90;;;;;;8362874;28;20104;-71
2020/12/28 05:43:37;;;;;;;6.10;3.60;;;0.40;99.90;;;;;;8362935;28;20029;-70
2020/12/28 05:47:43;;;;;;;6.13;3.20;;;0.60;99.90;;;;;;8361245;28;20056;-71
2020/12/28 05:51:45;;;;;;;5.40;3.10;;;0.40;99.90;;;;;;8359880;28;20145;-70
2020/12/28 05:55:46;;;;;;;4.90;2.78;;;0.60;99.90;;;;;;8360105;28;20029;-71
2020/12/28 05:59:48;;;;;;;4.18;2.60;;;0.90;99.90;;;;;;8362019;28;20405;-71
2020/12/28 06:03:51;;;;;;;4.05;2.35;;;0.90;99.90;;;;;;8360977;28;20386;-70
2020/12/28 06:07:51;;;;;;;4.70;2.80;;;1.10;99.90;;;;;;8361415;28;20028;-70
2020/12/28 06:12:03;;;;;;;5.55;3.10;;;1.20;99.90;;;;;;8359362;28;20552;-70
2020/12/28 06:16:04;;;;;;;4.53;2.92;;;0.90;99.90;;;;;;8360438;28;20541;-70
2020/12/28 06:20:07;;;;;;;4.75;2.63;;;1.00;99.90;;;;;;8360829;28;20104;-71
2020/12/28 06:24:07;;;;;;;10.90;4.30;;;1.10;99.90;;;;;;8361539;28;20028;-72
2020/12/28 06:28:08;;;;;;;7.90;4.20;;;1.10;99.90;;;;;;8359802;28;20029;-70
2020/12/28 06:32:13;;;;;;;6.30;3.30;;;0.90;99.90;;;;;;8359374;28;20028;-71
2020/12/28 06:36:17;;;;;;;5.50;2.55;;;0.70;99.90;;;;;;8360613;28;20494;-70
2020/12/28 06:40:37;;;;;;;5.88;3.10;;;1.00;99.90;;;;;;8359280;28;20047;-71
2020/12/28 06:44:38;;;;;;;3.78;2.22;;;0.90;99.90;;;;;;8359485;28;20048;-69
2020/12/28 06:48:39;;;;;;;5.63;2.47;;;0.80;99.90;;;;;;8360540;28;20064;-71
2020/12/28 06:52:40;;;;;;;3.70;2.28;;;0.70;99.90;;;;;;8360619;28;20032;-70
2020/12/28 06:56:40;;;;;;;4.55;2.60;;;0.80;99.90;;;;;;8359353;28;20028;-71
2020/12/28 07:00:41;;;;;;;4.82;2.83;;;0.70;99.90;;;;;;8359986;28;20121;-71
2020/12/28 07:04:42;;;;;;;4.80;3.03;;;0.60;99.90;;;;;;8360190;28;20029;-70
2020/12/28 07:08:42;;;;;;;5.80;3.35;;;0.90;99.90;;;;;;8358679;28;20491;-71
2020/12/28 07:12:43;;;;;;;5.65;3.90;;;1.00;99.90;;;;;;8358331;28;20087;-71
2020/12/28 07:16:44;;;;;;;6.75;3.72;;;0.70;99.90;;;;;;8359220;28;20021;-70
2020/12/28 07:20:53;;;;;;;5.50;3.22;;;0.70;99.90;;;;;;8358406;28;20442;-71
2020/12/28 07:24:54;;;;;;;5.63;3.57;;;0.90;99.90;;;;;;8358158;28;20483;-71
2020/12/28 07:28:54;;;;;;;6.32;4.03;;;0.90;99.90;;;;;;8358836;28;20025;-70
2020/12/28 07:32:56;;;;;;;7.07;4.40;;;1.00;99.90;;;;;;8347025;28;20112;-71
2020/12/28 07:36:57;;;;;;;10.65;6.43;;;0.80;99.90;;;;;;8355337;28;20017;-71
2020/12/28 07:40:58;;;;;;;9.90;5.72;;;0.80;99.90;;;;;;8356408;28;20475;-71
2020/12/28 07:45:01;;;;;;;8.05;4.30;;;0.90;99.90;;;;;;8358249;28;20036;-71
2020/12/28 07:49:10;;;;;;;14.30;7.85;;;1.00;99.90;;;;;;8358063;28;20044;-70
2020/12/28 07:53:16;;;;;;;9.15;5.30;;;1.00;99.90;;;;;;8358195;28;20025;-69
2020/12/28 07:57:32;;;;;;;7.40;4.78;;;1.10;99.90;;;;;;8357475;28;20033;-73
2020/12/28 08:01:44;;;;;;;8.48;5.38;;;1.20;99.90;;;;;;8355720;28;20032;-74
2020/12/28 08:05:45;;;;;;;6.78;3.42;;;1.20;99.90;;;;;;8357122;28;20021;-73
2020/12/28 08:09:54;;;;;;;7.78;4.28;;;1.20;99.90;;;;;;8357753;28;20378;-70
2020/12/28 08:13:55;;;;;;;6.95;4.25;;;1.30;99.90;;;;;;8357750;28;20040;-69
2020/12/28 08:18:05;;;;;;;5.30;3.50;;;1.40;99.90;;;;;;8357217;28;20488;-72
2020/12/28 08:22:16;;;;;;;4.05;2.22;;;1.40;99.90;;;;;;8346228;28;20088;-71
2020/12/28 08:26:19;;;;;;;7.70;2.95;;;1.60;99.90;;;;;;8353312;28;20732;-71
2020/12/28 08:30:20;;;;;;;3.63;2.58;;;1.80;99.90;;;;;;8351547;28;20029;-71
2020/12/28 08:34:29;;;;;;;4.15;2.53;;;1.70;99.90;;;;;;8338745;28;20422;-72
2020/12/28 08:38:32;;;;;;;5.10;2.77;;;1.90;99.90;;;;;;8364552;28;20074;-71
2020/12/28 08:42:33;;;;;;;6.47;3.20;;;2.00;99.90;;;;;;8362444;28;20029;-72
2020/12/28 08:46:34;;;;;;;8.55;4.78;;;2.20;99.90;;;;;;8363771;28;20036;-70
2020/12/28 08:50:35;;;;;;;4.85;3.13;;;2.20;99.90;;;;;;8356354;28;20030;-73
2020/12/28 08:54:37;;;;;;;5.00;2.75;;;2.20;99.90;;;;;;8354226;28;20025;-69
2020/12/28 08:58:37;;;;;;;4.93;3.22;;;2.30;99.90;;;;;;8338622;28;20064;-68
2020/12/28 09:02:38;;;;;;;4.72;2.85;;;2.20;99.90;;;;;;8359372;28;20079;-67
2020/12/28 09:06:41;;;;;;;4.85;2.80;;;2.20;99.90;;;;;;8362044;28;20029;-67
2020/12/28 09:10:42;;;;;;;5.90;2.80;;;2.10;99.90;;;;;;8339024;28;20025;-66
2020/12/28 09:14:43;;;;;;;6.32;3.10;;;2.30;99.90;;;;;;8339930;28;20676;-69
2020/12/28 09:18:43;;;;;;;5.82;2.88;;;2.40;99.90;;;;;;8359644;28;20032;-69
2020/12/28 09:22:44;;;;;;;3.42;2.13;;;2.20;99.90;;;;;;8356876;28;20112;-69
2020/12/28 09:26:44;;;;;;;3.50;2.05;;;2.40;99.90;;;;;;8359342;28;20100;-68
2020/12/28 09:30:45;;;;;;;4.95;3.13;;;2.30;99.90;;;;;;8341982;28;20107;-69
2020/12/28 09:34:45;;;;;;;5.05;2.78;;;2.30;99.90;;;;;;8360297;28;20021;-69
2020/12/28 09:38:47;;;;;;;1.00;0.90;;;2.10;99.90;;;;;;8359932;28;20051;-69
2020/12/28 09:42:48;;;;;;;3.72;2.47;;;2.20;99.90;;;;;;8359845;28;20021;-69
2020/12/28 09:46:50;;;;;;;26.20;11.80;;;2.10;99.90;;;;;;8359177;28;20419;-69
2020/12/28 09:50:51;;;;;;;5.32;3.13;;;2.10;99.90;;;;;;8360044;28;20081;-68
2020/12/28 09:54:52;;;;;;;4.07;2.75;;;2.20;99.90;;;;;;8361149;28;20249;-69
2020/12/28 09:58:52;;;;;;;8.10;3.20;;;2.20;99.90;;;;;;8357104;28;20082;-69
2020/12/28 10:02:53;;;;;;;4.88;2.90;;;2.20;99.90;;;;;;8338708;28;20120;-69
2020/12/28 10:06:54;;;;;;;11.13;3.10;;;2.20;99.90;;;;;;8359703;28;20092;-69
2020/12/28 10:10:54;;;;;;;5.18;2.92;;;2.30;99.90;;;;;;8358501;28;20112;-70
2020/12/28 10:14:55;;;;;;;4.13;2.80;;;2.60;99.90;;;;;;8360848;28;20031;-70
2020/12/28 10:18:56;;;;;;;5.38;3.03;;;2.70;99.90;;;;;;8359152;28;20597;-71
2020/12/28 10:22:58;;;;;;;5.55;3.40;;;2.90;99.90;;;;;;8357021;28;20029;-70
2020/12/28 10:26:58;;;;;;;5.15;3.55;;;2.90;99.90;;;;;;8358429;28;20458;-69
2020/12/28 10:30:59;;;;;;;7.07;3.95;;;2.80;99.90;;;;;;8358694;28;20028;-70
2020/12/28 10:34:59;;;;;;;6.82;4.45;;;2.80;99.90;;;;;;8359825;28;20057;-70
2020/12/28 10:39:00;;;;;;;6.82;3.90;;;2.90;99.90;;;;;;8354104;28;20024;-70
2020/12/28 10:43:01;;;;;;;6.18;4.05;;;2.80;99.90;;;;;;8357143;28;20017;-70
2020/12/28 10:47:01;;;;;;;7.13;4.72;;;2.70;99.90;;;;;;8365099;28;20029;-70
2020/12/28 10:51:03;;;;;;;7.60;4.80;;;2.80;99.90;;;;;;8363880;28;20044;-70
2020/12/28 10:55:04;;;;;;;8.85;5.22;;;2.80;99.90;;;;;;8353757;28;20032;-70
2020/12/28 10:59:04;;;;;;;10.50;7.03;;;2.50;99.90;;;;;;8357933;28;20032;-70
2020/12/28 11:03:05;;;;;;;9.90;5.43;;;2.40;99.90;;;;;;8353695;28;20122;-70
2020/12/28 11:07:07;;;;;;;9.18;5.72;;;2.20;99.90;;;;;;8343714;28;20056;-70
2020/12/28 11:11:08;;;;;;;10.95;5.95;;;2.00;99.90;;;;;;8351422;28;20394;-70
2020/12/28 11:15:09;;;;;;;9.13;5.35;;;2.20;99.90;;;;;;8351632;28;20044;-70
2020/12/28 11:19:10;;;;;;;9.68;5.57;;;2.30;99.90;;;;;;8360327;28;20021;-70
2020/12/28 11:23:10;;;;;;;9.23;6.03;;;2.30;99.90;;;;;;8358741;28;20032;-70
2020/12/28 11:27:11;;;;;;;10.05;5.65;;;2.30;99.90;;;;;;8360056;28;20104;-70
2020/12/28 11:31:16;;;;;;;9.40;5.50;;;2.50;99.90;;;;;;8358607;28;20029;-71
2020/12/28 11:35:16;;;;;;;10.73;5.35;;;2.80;99.90;;;;;;8357854;28;20486;-71
2020/12/28 11:39:17;;;;;;;8.95;5.47;;;2.90;99.90;;;;;;8357767;28;20024;-71
2020/12/28 11:43:17;;;;;;;9.98;5.90;;;2.90;99.90;;;;;;8354259;28;20032;-71
2020/12/28 11:47:18;;;;;;;10.05;6.13;;;2.80;99.90;;;;;;8355107;28;20498;-70
2020/12/28 11:51:19;;;;;;;8.80;5.85;;;2.80;99.90;;;;;;8358215;28;20104;-70
2020/12/28 11:55:19;;;;;;;11.52;7.55;;;2.90;99.90;;;;;;8357370;28;20032;-70
2020/12/28 11:59:20;;;;;;;11.75;7.88;;;2.90;99.90;;;;;;8357441;28;20025;-70
2020/12/28 12:03:20;;;;;;;9.90;5.78;;;3.00;99.90;;;;;;8358420;28;20116;-71
2020/12/28 12:07:23;;;;;;;9.45;6.60;;;3.10;99.90;;;;;;8355188;28;20025;-71
2020/12/28 12:11:23;;;;;;;9.73;6.43;;;3.00;99.90;;;;;;8356857;28;20060;-71
2020/12/28 12:15:24;;;;;;;10.32;6.90;;;2.90;99.90;;;;;;8356621;28;20032;-71
2020/12/28 12:19:25;;;;;;;11.32;6.80;;;3.10;99.90;;;;;;8371833;28;20437;-70
2020/12/28 12:23:25;;;;;;;16.92;8.50;;;3.00;99.90;;;;;;8357820;28;20029;-71
2020/12/28 12:27:26;;;;;;;15.05;7.30;;;3.10;99.90;;;;;;8351389;28;20029;-70
2020/12/28 12:31:26;;;;;;;10.77;6.97;;;3.10;99.90;;;;;;8356874;28;20021;-70
2020/12/28 12:35:27;;;;;;;19.35;8.88;;;3.00;99.90;;;;;;8358030;28;20048;-70
2020/12/28 12:39:29;;;;;;;28.30;14.70;;;2.80;99.90;;;;;;8354965;28;20032;-70
2020/12/28 12:43:30;;;;;;;19.98;11.60;;;2.70;99.90;;;;;;8357490;28;20100;-71
2020/12/28 12:47:30;;;;;;;22.20;12.70;;;2.60;99.90;;;;;;8357811;28;20029;-70
2020/12/28 12:51:31;;;;;;;24.00;12.02;;;2.30;99.90;;;;;;8356782;28;20029;-70
2020/12/28 12:55:31;;;;;;;20.92;12.07;;;2.20;99.90;;;;;;8357387;28;20059;-70
2020/12/28 13:00:01;;;;;;;85.50;42.10;;;2.40;99.90;;;;;;8356563;28;20059;-70
2020/12/28 13:03:54;;;;;;;;;;;2.30;99.90;;;;;;8356878;28;20114;-71
2020/12/28 13:07:55;;;;;;;24.42;15.00;;;2.20;99.90;;;;;;8357217;28;19912;-70
2020/12/28 13:11:56;;;;;;;14.63;8.40;;;2.10;99.90;;;;;;8359802;28;20398;-70
2020/12/28 13:15:56;;;;;;;21.10;13.13;;;2.20;99.90;;;;;;8362366;28;20100;-71
2020/12/28 13:19:57;;;;;;;10.55;6.80;;;2.20;99.90;;;;;;8362929;28;20021;-70
2020/12/28 13:23:57;;;;;;;6.35;4.25;;;2.10;99.90;;;;;;8362771;28;20021;-70
2020/12/28 13:27:58;;;;;;;8.65;6.20;;;2.20;99.90;;;;;;8358920;28;20604;-71
2020/12/28 13:31:59;;;;;;;8.10;4.50;;;2.30;99.90;;;;;;8357002;28;20039;-70
2020/12/28 13:35:59;;;;;;;7.75;4.72;;;2.30;99.90;;;;;;8356188;28;20021;-70
2020/12/28 13:40:00;;;;;;;10.00;5.82;;;2.40;99.90;;;;;;8357485;28;20533;-69
2020/12/28 13:44:01;;;;;;;9.23;7.30;;;2.30;99.90;;;;;;8357219;28;20069;-70
2020/12/28 13:48:01;;;;;;;11.63;7.85;;;2.20;99.90;;;;;;8353854;28;20537;-70
2020/12/28 13:52:02;;;;;;;44.35;20.17;;;2.20;99.90;;;;;;8356802;28;20108;-71
2020/12/28 13:56:03;;;;;;;5.47;4.05;;;2.00;99.90;;;;;;8361504;28;20056;-70
2020/12/28 14:00:03;;;;;;;5.20;3.70;;;2.00;99.90;;;;;;8350131;28;20029;-70
2020/12/28 14:04:04;;;;;;;5.13;3.15;;;2.00;99.90;;;;;;8359028;28;20036;-69
2020/12/28 14:08:05;;;;;;;4.28;2.88;;;2.00;99.90;;;;;;8357520;28;20066;-70
2020/12/28 14:12:05;;;;;;;4.57;2.83;;;2.10;99.90;;;;;;8355986;28;20116;-71
2020/12/28 14:16:14;;;;;;;2.10;1.42;;;2.20;99.90;;;;;;8354214;28;20025;-70
2020/12/28 14:20:15;;;;;;;2.22;1.52;;;2.30;99.90;;;;;;8358474;28;20132;-70
2020/12/28 14:24:15;;;;;;;2.28;1.50;;;2.30;99.90;;;;;;8356685;28;20123;-69
2020/12/28 14:28:16;;;;;;;2.60;2.03;;;2.30;99.90;;;;;;8346941;28;20554;-70
2020/12/28 14:32:17;;;;;;;1.40;1.00;;;2.30;99.90;;;;;;8358315;28;20036;-70
2020/12/28 14:36:20;;;;;;;2.08;1.30;;;2.30;99.90;;;;;;8350751;28;20067;-70
2020/12/28 14:40:20;;;;;;;1.50;0.80;;;2.30;99.90;;;;;;8361644;28;20075;-70
2020/12/28 14:44:21;;;;;;;5.78;2.70;;;2.30;99.90;;;;;;8350070;28;20021;-71
2020/12/28 14:48:22;;;;;;;2.97;2.05;;;2.20;99.90;;;;;;8359886;28;20020;-71
2020/12/28 14:52:22;;;;;;;2.47;1.90;;;2.20;99.90;;;;;;8360345;28;20037;-71
2020/12/28 14:56:24;;;;;;;2.88;2.00;;;2.20;99.90;;;;;;8354711;28;20025;-72
2020/12/28 15:00:24;;;;;;;4.53;2.88;;;2.20;99.90;;;;;;8358561;28;20048;-73
2020/12/28 15:04:25;;;;;;;2.80;2.20;;;2.20;99.90;;;;;;8358276;28;20040;-71
2020/12/28 15:08:25;;;;;;;2.75;2.30;;;2.10;99.90;;;;;;8355986;28;20032;-71
2020/12/28 15:12:26;;;;;;;2.58;2.10;;;2.20;99.90;;;;;;8353385;28;20029;-72
2020/12/28 15:16:26;;;;;;;1.48;1.23;;;2.10;99.90;;;;;;8356289;28;20104;-72
2020/12/28 15:20:27;;;;;;;3.08;1.80;;;2.10;99.90;;;;;;8356504;28;20025;-72
2020/12/28 15:24:28;;;;;;;2.75;2.10;;;2.10;99.90;;;;;;8351003;28;20025;-72
2020/12/28 15:28:28;;;;;;;2.28;1.83;;;2.10;99.90;;;;;;8351502;28;20033;-72
2020/12/28 15:32:29;;;;;;;5.57;3.92;;;2.10;99.90;;;;;;8356928;28;20044;-73
2020/12/28 15:36:35;;;;;;;2.38;2.05;;;2.00;99.90;;;;;;8359095;28;20056;-71
2020/12/28 15:40:36;;;;;;;3.13;1.52;;;2.00;99.90;;;;;;8358154;28;20036;-73
2020/12/28 15:44:37;;;;;;;2.45;1.48;;;2.00;99.90;;;;;;8355038;28;20387;-73
2020/12/28 15:48:37;;;;;;;1.83;1.35;;;2.00;99.90;;;;;;8325717;28;20036;-72
2020/12/28 15:52:38;;;;;;;1.17;1.08;;;2.00;99.90;;;;;;8326688;28;20479;-72
2020/12/28 15:56:38;;;;;;;3.08;2.38;;;2.00;99.90;;;;;;8326687;28;20038;-73
2020/12/28 16:00:39;;;;;;;2.58;1.83;;;2.00;99.90;;;;;;8326731;28;20038;-72
2020/12/28 16:04:40;;;;;;;2.50;2.13;;;2.00;99.90;;;;;;8328975;28;20107;-73
2020/12/28 16:08:40;;;;;;;4.40;2.40;;;2.00;99.90;;;;;;8358193;28;20033;-72
2020/12/28 16:12:42;;;;;;;5.00;2.47;;;2.00;99.90;;;;;;8358604;28;20036;-72
2020/12/28 16:16:42;;;;;;;4.25;2.70;;;2.00;99.90;;;;;;8354168;28;20036;-73
2020/12/28 16:20:43;;;;;;;3.75;2.53;;;2.00;99.90;;;;;;8355252;28;20025;-72
2020/12/28 16:24:43;;;;;;;4.07;2.92;;;2.00;99.90;;;;;;8356054;28;20111;-72
2020/12/28 16:28:44;;;;;;;4.53;3.08;;;2.00;99.90;;;;;;8354448;28;20151;-73
2020/12/28 16:32:45;;;;;;;3.40;2.30;;;2.10;99.90;;;;;;8355192;28;20083;-73
2020/12/28 16:36:45;;;;;;;4.22;3.15;;;2.10;99.90;;;;;;8353245;28;20655;-72
2020/12/28 16:40:52;;;;;;;4.18;3.55;;;2.00;99.90;;;;;;8354517;28;20029;-72
2020/12/28 16:44:52;;;;;;;3.95;2.85;;;2.10;99.90;;;;;;8351514;28;20075;-73
2020/12/28 16:48:54;;;;;;;3.08;2.47;;;2.10;99.90;;;;;;8360355;28;20133;-73
2020/12/28 16:52:55;;;;;;;2.50;1.48;;;2.20;99.90;;;;;;8360404;28;20584;-73
2020/12/28 16:56:56;;;;;;;3.08;1.75;;;2.10;99.90;;;;;;8361653;28;20029;-73
2020/12/28 17:00:57;;;;;;;3.65;2.88;;;2.10;99.90;;;;;;8354992;28;20056;-73
2020/12/28 17:04:57;;;;;;;9.80;5.95;;;2.10;99.90;;;;;;8361213;28;20029;-72
2020/12/28 17:08:59;;;;;;;4.88;2.80;;;2.10;99.90;;;;;;8353920;28;20017;-73
2020/12/28 17:12:59;;;;;;;4.40;3.65;;;2.10;99.90;;;;;;8361456;28;20055;-73
2020/12/28 17:17:00;;;;;;;6.70;5.07;;;2.20;99.90;;;;;;8358079;28;20017;-73
2020/12/28 17:21:01;;;;;;;6.00;4.40;;;2.20;99.90;;;;;;8355909;28;20041;-73
2020/12/28 17:25:02;;;;;;;6.95;5.28;;;2.20;99.90;;;;;;8360694;28;20060;-72
2020/12/28 17:29:03;;;;;;;8.02;5.60;;;2.20;99.90;;;;;;8357960;28;20086;-74
2020/12/28 17:33:03;;;;;;;7.68;5.68;;;2.20;99.90;;;;;;8361153;28;20487;-73
2020/12/28 17:37:08;;;;;;;5.53;4.38;;;2.20;99.90;;;;;;8361082;28;20029;-73
2020/12/28 17:41:09;;;;;;;6.15;4.38;;;2.20;99.90;;;;;;8359706;28;20511;-72
2020/12/28 17:45:11;;;;;;;6.13;4.22;;;2.20;99.90;;;;;;8349517;28;20064;-73
2020/12/28 17:49:11;;;;;;;14.60;7.53;;;2.10;99.90;;;;;;8356695;28;20029;-73
2020/12/28 17:53:12;;;;;;;7.60;5.80;;;2.00;99.90;;;;;;8360562;28;20031;-73
2020/12/28 17:57:12;;;;;;;8.60;7.03;;;2.00;99.90;;;;;;8355566;28;20072;-73
2020/12/28 18:01:21;;;;;;;8.68;5.75;;;2.00;99.90;;;;;;8334669;28;20032;-73
2020/12/28 18:05:22;;;;;;;6.80;5.20;;;1.90;99.90;;;;;;8358095;28;20120;-73
2020/12/28 18:09:23;;;;;;;5.22;4.38;;;2.00;99.90;;;;;;8354615;28;20030;-73
2020/12/28 18:13:23;;;;;;;5.47;4.10;;;1.70;99.90;;;;;;8350395;28;20491;-73
2020/12/28 18:17:27;;;;;;;6.25;4.75;;;1.80;99.90;;;;;;8342938;28;20670;-72
2020/12/28 18:21:28;;;;;;;7.03;5.07;;;1.80;99.90;;;;;;8357709;28;20120;-73
2020/12/28 18:25:28;;;;;;;8.27;6.25;;;1.70;99.90;;;;;;8358427;28;20029;-72
2020/12/28 18:29:29;;;;;;;6.68;5.13;;;1.50;99.90;;;;;;8358187;28;20111;-72
2020/12/28 18:33:30;;;;;;;6.28;4.68;;;1.30;99.90;;;;;;8359243;28;20114;-72
2020/12/28 18:37:30;;;;;;;8.07;5.90;;;1.20;99.90;;;;;;8358953;28;20036;-73
2020/12/28 18:41:31;;;;;;;8.63;7.07;;;1.00;99.90;;;;;;8357231;28;20021;-73
2020/12/28 18:45:31;;;;;;;10.00;6.50;;;0.80;99.90;;;;;;8358649;28;20525;-73
2020/12/28 18:49:34;;;;;;;10.82;7.55;;;0.60;99.90;;;;;;8357376;28;20024;-73
2020/12/28 18:53:35;;;;;;;8.38;5.82;;;0.30;99.90;;;;;;8357442;28;20039;-73
2020/12/28 18:57:41;;;;;;;8.30;5.75;;;0.20;99.90;;;;;;8358589;28;20029;-73
2020/12/28 19:01:45;;;;;;;11.10;6.97;;;0.10;99.90;;;;;;8353515;28;20376;-72
2020/12/28 19:05:46;;;;;;;9.32;6.65;;;0.20;99.90;;;;;;8356957;28;20379;-73
2020/12/28 19:09:46;;;;;;;10.95;7.65;;;0.20;99.90;;;;;;8352775;28;20029;-71
2020/12/28 19:13:47;;;;;;;9.82;5.47;;;0.20;99.90;;;;;;8348681;28;20406;-71
2020/12/28 19:17:47;;;;;;;6.63;5.18;;;0.10;99.90;;;;;;8354686;28;20021;-68
2020/12/28 19:21:48;;;;;;;7.53;5.05;;;-0.10;99.90;;;;;;8353568;28;20479;-69
2020/12/28 19:25:48;;;;;;;7.28;4.97;;;-0.30;99.90;;;;;;8354225;28;20032;-68
2020/12/28 19:29:49;;;;;;;8.27;5.43;;;-0.50;99.90;;;;;;8355886;28;20032;-72
2020/12/28 19:33:50;;;;;;;8.88;6.13;;;-0.50;99.90;;;;;;8356633;28;20029;-71
2020/12/28 19:37:51;;;;;;;8.55;6.03;;;-0.70;99.90;;;;;;8356232;28;20047;-72
2020/12/28 19:41:51;;;;;;;9.07;6.65;;;-0.70;99.90;;;;;;8369390;28;20154;-71
2020/12/28 19:45:52;;;;;;;12.45;7.63;;;-0.80;99.90;;;;;;8355894;28;20068;-71
2020/12/28 19:49:53;;;;;;;10.70;7.35;;;-0.70;99.90;;;;;;8340928;28;20148;-72
2020/12/28 19:53:53;;;;;;;11.80;7.30;;;-0.40;99.90;;;;;;8355878;28;20037;-72
2020/12/28 19:57:57;;;;;;;12.02;7.22;;;-0.40;99.90;;;;;;8357007;28;20499;-72
2020/12/28 20:01:58;;;;;;;9.55;6.32;;;-0.40;99.90;;;;;;8354330;28;20028;-71
2020/12/28 20:05:58;;;;;;;13.82;7.85;;;-0.60;99.90;;;;;;8354067;28;20513;-71
2020/12/28 20:09:59;;;;;;;17.77;8.63;;;-1.00;99.90;;;;;;8353740;28;20032;-71
2020/12/28 20:14:00;;;;;;;7.57;5.40;;;-1.10;99.90;;;;;;8355247;28;20116;-72
2020/12/28 20:18:01;;;;;;;8.13;5.50;;;-1.30;99.90;;;;;;8355760;28;20044;-71
2020/12/28 20:22:01;;;;;;;7.63;4.80;;;-1.50;99.90;;;;;;8359578;28;20101;-71
2020/12/28 20:26:03;;;;;;;7.78;4.75;;;-1.40;99.90;;;;;;8361246;28;20037;-72
2020/12/28 20:30:12;;;;;;;6.75;4.63;;;-1.40;99.90;;;;;;8360386;28;20041;-71
2020/12/28 20:34:13;;;;;;;7.88;5.07;;;-1.50;99.90;;;;;;8360533;28;20392;-72
2020/12/28 20:38:19;;;;;;;8.90;5.80;;;-1.60;99.90;;;;;;8361464;28;20037;-70
2020/12/28 20:42:20;;;;;;;16.75;9.82;;;-1.30;99.90;;;;;;8356504;28;20086;-71
2020/12/28 20:46:21;;;;;;;18.63;11.02;;;-1.30;99.90;;;;;;8362485;28;20063;-71
2020/12/28 20:50:21;;;;;;;18.30;10.10;;;-1.40;99.90;;;;;;8361686;28;20378;-71
2020/12/28 20:54:22;;;;;;;19.23;11.23;;;-1.50;99.90;;;;;;8361557;28;20048;-70
2020/12/28 20:58:22;;;;;;;21.05;10.73;;;-1.40;99.90;;;;;;8361451;28;20039;-70
2020/12/28 21:02:23;;;;;;;13.57;8.45;;;-1.60;99.90;;;;;;8360399;28;20025;-71
2020/12/28 21:06:24;;;;;;;18.73;10.30;;;-1.50;99.90;;;;;;8361360;28;20399;-71
2020/12/28 21:10:24;;;;;;;16.38;9.95;;;-1.40;99.90;;;;;;8361375;28;20475;-70